createdAt,value
2019-03-24T00:01:08.652Z,99667.38
2019-03-24T00:03:38.128Z,99662.80
2019-03-24T00:06:07.620Z,99659.42
2019-03-24T00:08:37.099Z,99658.33
2019-03-24T00:11:06.671Z,99655.41
2019-03-24T00:13:36.156Z,99656.63
2019-03-24T00:16:05.970Z,99652.73
2019-03-24T00:18:35.470Z,99654.50
2019-03-24T00:21:05.223Z,99646.45
2019-03-24T00:23:34.726Z,99647.23
2019-03-24T00:26:04.399Z,99647.20
2019-03-24T00:28:34.133Z,99644.31
2019-03-24T00:31:03.675Z,99642.62
2019-03-24T00:33:33.145Z,99639.44
2019-03-24T00:36:02.643Z,99645.56
2019-03-24T00:38:32.144Z,99635.83
2019-03-24T00:41:01.654Z,99634.72
2019-03-24T00:43:31.127Z,99634.09
2019-03-24T00:46:00.671Z,99631.57
2019-03-24T00:48:30.149Z,99622.22
2019-03-24T00:50:59.613Z,99617.37
2019-03-24T00:53:29.139Z,99615.69
2019-03-24T00:55:58.591Z,99619.51
2019-03-24T00:58:28.086Z,99623.67
2019-03-24T01:00:57.662Z,99628.57
2019-03-24T01:03:27.158Z,99627.48
2019-03-24T01:05:56.685Z,99613.37
2019-03-24T01:08:26.418Z,99615.23
2019-03-24T01:10:56.033Z,99614.59
2019-03-24T01:13:44.880Z,99613.95
2019-03-24T01:16:14.339Z,99609.42
2019-03-24T01:18:43.836Z,99603.31
2019-03-24T01:21:13.846Z,99608.55
2019-03-24T01:23:43.339Z,99597.37
2019-03-24T01:26:12.797Z,99593.23
2019-03-24T01:28:42.316Z,99587.45
2019-03-24T01:31:11.833Z,99589.63
2019-03-24T01:33:41.313Z,99588.80
2019-03-24T01:36:10.835Z,99586.09
2019-03-24T01:38:40.394Z,99584.89
2019-03-24T01:41:09.851Z,99583.47
2019-03-24T01:43:39.366Z,99581.00
2019-03-24T01:46:28.167Z,99467.55
2019-03-24T01:48:57.831Z,99584.51
2019-03-24T01:51:27.321Z,99583.69
2019-03-24T01:53:56.802Z,99579.02
2019-03-24T01:56:26.655Z,99578.50
2019-03-24T01:58:56.126Z,99578.20
2019-03-24T02:01:25.623Z,99573.55
2019-03-24T02:03:55.132Z,99571.79
2019-03-24T02:06:24.587Z,99574.92
2019-03-24T02:08:54.088Z,99573.23
2019-03-24T02:11:23.766Z,99571.02
2019-03-24T02:13:53.252Z,99567.95
2019-03-24T02:16:22.809Z,99566.01
2019-03-24T02:18:52.302Z,99568.84
2019-03-24T02:21:21.972Z,99568.11
2019-03-24T02:23:51.433Z,99566.06
2019-03-24T02:26:20.916Z,99562.39
2019-03-24T02:28:50.387Z,99554.62
2019-03-24T02:31:19.874Z,99557.00
2019-03-24T02:33:49.423Z,99562.72
2019-03-24T02:36:18.889Z,99554.73
2019-03-24T02:38:48.384Z,99554.13
2019-03-24T02:41:17.908Z,99550.55
2019-03-24T02:43:47.372Z,99554.58
2019-03-24T02:46:24.323Z,99552.73
2019-03-24T02:48:53.941Z,99552.52
2019-03-24T02:51:23.433Z,99546.36
2019-03-24T02:53:52.933Z,99549.20
2019-03-24T02:56:22.419Z,99557.67
2019-03-24T02:58:51.888Z,99558.22
2019-03-24T03:01:21.359Z,99553.29
2019-03-24T03:03:50.848Z,99559.03
2019-03-24T03:06:20.410Z,99551.30
2019-03-24T03:08:49.875Z,99551.37
2019-03-24T03:11:19.379Z,99555.62
2019-03-24T03:14:08.248Z,99551.09
2019-03-24T03:16:39.009Z,99549.49
2019-03-24T03:19:09.096Z,99543.02
2019-03-24T03:21:59.146Z,99547.53
2019-03-24T03:24:28.647Z,99546.35
2019-03-24T03:26:58.000Z,99546.41
2019-03-24T03:29:27.527Z,99540.82
2019-03-24T03:31:57.007Z,99534.45
2019-03-24T03:34:26.506Z,99536.33
2019-03-24T03:36:55.973Z,99535.92
2019-03-24T03:39:25.436Z,99529.50
2019-03-24T03:41:54.909Z,99530.30
2019-03-24T03:44:24.426Z,99531.11
2019-03-24T03:46:53.905Z,99521.39
2019-03-24T03:49:23.356Z,99520.44
2019-03-24T03:51:52.859Z,99524.94
2019-03-24T03:54:22.332Z,99523.71
2019-03-24T03:56:51.889Z,99521.52
2019-03-24T03:59:21.414Z,99522.63
2019-03-24T04:01:50.876Z,99517.48
2019-03-24T04:04:20.368Z,99515.97
2019-03-24T04:06:49.880Z,99518.50
2019-03-24T04:09:19.356Z,99514.50
2019-03-24T04:11:48.806Z,99514.55
2019-03-24T04:14:18.356Z,99522.92
2019-03-24T04:16:47.844Z,99517.45
2019-03-24T04:19:17.327Z,99518.73
2019-03-24T04:21:46.844Z,99522.59
2019-03-24T04:24:16.301Z,99515.35
2019-03-24T04:26:47.403Z,99515.45
2019-03-24T04:29:17.049Z,99517.49
2019-03-24T04:31:46.552Z,99510.05
2019-03-24T04:34:16.040Z,99507.09
2019-03-24T04:36:45.766Z,99509.08
2019-03-24T04:39:15.235Z,99505.59
2019-03-24T04:41:44.768Z,99504.09
2019-03-24T04:44:14.282Z,99509.83
2019-03-24T04:47:03.054Z,99511.70
2019-03-24T04:49:32.532Z,99515.56
2019-03-24T04:52:02.009Z,99522.92
2019-03-24T04:54:31.515Z,99519.97
2019-03-24T04:57:01.178Z,99516.66
2019-03-24T04:59:30.673Z,99520.26
2019-03-24T05:02:00.366Z,99519.63
2019-03-24T05:04:29.881Z,99523.31
2019-03-24T05:06:59.775Z,99518.94
2019-03-24T05:09:29.944Z,99523.79
2019-03-24T05:11:59.481Z,99526.94
2019-03-24T05:14:28.968Z,99524.39
2019-03-24T05:16:58.422Z,99523.79
2019-03-24T05:19:27.943Z,99520.59
2019-03-24T05:21:57.441Z,99523.16
2019-03-24T05:24:27.800Z,99528.77
2019-03-24T05:26:57.262Z,99526.39
2019-03-24T05:29:29.667Z,99529.27
2019-03-24T05:31:59.156Z,99521.52
2019-03-24T05:34:47.989Z,99518.90
2019-03-24T05:37:17.470Z,99513.23
2019-03-24T05:39:46.929Z,99515.70
2019-03-24T05:42:16.418Z,99520.17
2019-03-24T05:44:45.922Z,99522.95
2019-03-24T05:47:15.388Z,99527.36
2019-03-24T05:49:44.893Z,99532.41
2019-03-24T05:52:14.448Z,99534.71
2019-03-24T05:54:43.923Z,99533.63
2019-03-24T05:57:13.397Z,99528.86
2019-03-24T05:59:42.890Z,99519.53
2019-03-24T06:02:12.623Z,99522.84
2019-03-24T06:04:42.193Z,99529.13
2019-03-24T06:07:11.652Z,99528.59
2019-03-24T06:09:41.162Z,99529.24
2019-03-24T06:12:10.682Z,99523.30
2019-03-24T06:14:59.484Z,99531.95
2019-03-24T06:17:28.989Z,99530.39
2019-03-24T06:19:58.439Z,99534.42
2019-03-24T06:22:27.940Z,99534.75
2019-03-24T06:24:57.961Z,99541.08
2019-03-24T06:27:27.459Z,99548.15
2019-03-24T06:29:56.939Z,99544.37
2019-03-24T06:32:26.501Z,99545.40
2019-03-24T06:34:55.996Z,99537.33
2019-03-24T06:37:25.542Z,99536.81
2019-03-24T06:39:55.013Z,99535.74
2019-03-24T06:42:24.696Z,99531.88
2019-03-24T06:44:54.150Z,99529.87
2019-03-24T06:47:23.826Z,99532.21
2019-03-24T06:50:12.785Z,99526.73
2019-03-24T06:52:42.290Z,99528.69
2019-03-24T06:55:12.290Z,99523.47
2019-03-24T06:57:41.795Z,99523.05
2019-03-24T07:00:12.879Z,99515.56
2019-03-24T07:02:42.546Z,99513.49
2019-03-24T07:05:31.345Z,99516.33
2019-03-24T07:08:00.840Z,99513.61
2019-03-24T07:10:30.295Z,99510.98
2019-03-24T07:12:59.813Z,99510.14
2019-03-24T07:15:29.300Z,99509.12
2019-03-24T07:18:18.088Z,99504.20
2019-03-24T07:20:47.565Z,99506.55
2019-03-24T07:23:17.099Z,99501.84
2019-03-24T07:25:46.696Z,99504.28
2019-03-24T07:28:16.203Z,99506.64
2019-03-24T07:30:45.683Z,99507.32
2019-03-24T07:33:15.195Z,99496.83
2019-03-24T07:35:46.170Z,99495.28
2019-03-24T07:38:15.670Z,99497.91
2019-03-24T07:40:45.193Z,99493.67
2019-03-24T07:43:14.663Z,99488.88
2019-03-24T07:45:44.169Z,99489.47
2019-03-24T07:48:19.108Z,99491.55
2019-03-24T07:51:04.189Z,99486.11
2019-03-24T07:53:33.800Z,99480.45
2019-03-24T07:56:03.291Z,99478.33
2019-03-24T07:58:32.804Z,99473.97
2019-03-24T08:01:02.312Z,99466.30
2019-03-24T08:03:31.788Z,99457.98
2019-03-24T08:06:01.280Z,99459.98
2019-03-24T08:08:30.809Z,99457.86
2019-03-24T08:11:00.315Z,99448.27
2019-03-24T08:13:29.799Z,99445.81
2019-03-24T08:15:59.340Z,99448.44
2019-03-24T08:18:30.101Z,99444.83
2019-03-24T08:20:59.894Z,99441.78
2019-03-24T08:23:48.711Z,99448.92
2019-03-24T08:26:20.089Z,99461.03
2019-03-24T08:28:49.550Z,99453.27
2019-03-24T08:31:19.069Z,99442.27
2019-03-24T08:33:48.593Z,99456.36
2019-03-24T08:36:18.110Z,99450.03
2019-03-24T08:38:47.706Z,99444.73
2019-03-24T08:41:17.342Z,99438.98
2019-03-24T08:43:46.843Z,99430.02
2019-03-24T08:46:16.350Z,99421.03
2019-03-24T08:48:45.810Z,99424.80
2019-03-24T08:51:15.310Z,99424.14
2019-03-24T08:53:45.126Z,99423.97
2019-03-24T08:56:14.620Z,99408.61
2019-03-24T08:58:44.136Z,99406.02
2019-03-24T09:01:13.704Z,99405.13
2019-03-24T09:03:43.262Z,99388.22
2019-03-24T09:06:12.788Z,99379.22
2019-03-24T09:09:01.830Z,99385.06
2019-03-24T09:11:31.709Z,99394.65
2019-03-24T09:14:01.267Z,99380.48
2019-03-24T09:16:30.820Z,99391.62
2019-03-24T09:19:00.315Z,99394.41
2019-03-24T09:21:29.809Z,99392.91
2019-03-24T09:23:59.287Z,99376.98
2019-03-24T09:26:28.952Z,99370.48
2019-03-24T09:28:59.399Z,99374.63
2019-03-24T09:31:29.015Z,99382.80
2019-03-24T09:33:58.507Z,99377.42
2019-03-24T09:36:28.035Z,99358.88
2019-03-24T09:38:57.531Z,99348.40
2019-03-24T09:41:27.100Z,99329.25
2019-03-24T09:43:56.599Z,99329.38
2019-03-24T09:46:26.131Z,99319.97
2019-03-24T09:49:14.935Z,99328.71
2019-03-24T09:51:44.421Z,99343.17
2019-03-24T09:54:14.185Z,99340.59
2019-03-24T09:56:43.680Z,99322.73
2019-03-24T09:59:13.214Z,99325.05
2019-03-24T10:01:42.683Z,99322.06
2019-03-24T10:04:12.150Z,99337.03
2019-03-24T10:06:41.693Z,99337.57
2019-03-24T10:09:11.159Z,99329.45
2019-03-24T10:11:40.704Z,99322.83
2019-03-24T10:14:10.266Z,99323.88
2019-03-24T10:16:39.772Z,99316.30
2019-03-24T10:19:13.853Z,99314.05
2019-03-24T10:21:40.553Z,99301.50
2019-03-24T10:24:10.216Z,99303.94
2019-03-24T10:26:59.202Z,99291.66
2019-03-24T10:29:28.763Z,99283.45
2019-03-24T10:31:58.280Z,99272.91
2019-03-24T10:34:27.805Z,99275.82
2019-03-24T10:36:57.295Z,99273.79
2019-03-24T10:39:26.761Z,99267.06
2019-03-24T10:41:56.325Z,99278.52
2019-03-24T10:44:25.811Z,99273.23
2019-03-24T10:46:55.312Z,99269.37
2019-03-24T10:49:25.409Z,99270.03
2019-03-24T10:51:54.988Z,99264.01
2019-03-24T10:54:44.020Z,99268.69
2019-03-24T10:57:13.667Z,99271.05
2019-03-24T10:59:43.165Z,99280.57
2019-03-24T11:02:12.670Z,99263.86
2019-03-24T11:04:42.145Z,99254.86
2019-03-24T11:07:11.618Z,99255.58
2019-03-24T11:09:41.190Z,99265.81
2019-03-24T11:12:10.656Z,99266.59
2019-03-24T11:14:40.134Z,99264.00
2019-03-24T11:17:09.650Z,99254.14
2019-03-24T11:19:39.194Z,99262.23
2019-03-24T11:22:08.700Z,99261.13
2019-03-24T11:24:38.194Z,99269.80
2019-03-24T11:27:07.794Z,99269.83
2019-03-24T11:29:37.266Z,99267.73
2019-03-24T11:32:06.965Z,99265.06
2019-03-24T11:34:36.424Z,99264.95
2019-03-24T11:37:11.734Z,99270.31
2019-03-24T11:39:41.459Z,99259.24
2019-03-24T11:42:10.968Z,99280.48
2019-03-24T11:44:40.506Z,99266.61
2019-03-24T11:47:09.991Z,99269.04
2019-03-24T11:49:45.979Z,99256.78
2019-03-24T11:52:10.729Z,99255.44
2019-03-24T11:54:40.233Z,99257.26
2019-03-24T11:57:29.072Z,99255.95
2019-03-24T11:59:58.630Z,99279.81
2019-03-24T12:02:28.121Z,99273.23
2019-03-24T12:04:57.624Z,99266.17
2019-03-24T12:07:27.121Z,99273.50
2019-03-24T12:09:57.088Z,99262.41
2019-03-24T12:12:26.615Z,99260.20
2019-03-24T12:15:15.435Z,99254.66
2019-03-24T12:17:44.912Z,99242.25
2019-03-24T12:20:15.031Z,99240.75
2019-03-24T12:22:44.556Z,99246.84
2019-03-24T12:25:14.258Z,99237.83
2019-03-24T12:27:43.777Z,99249.70
2019-03-24T12:30:14.266Z,99250.54
2019-03-24T12:33:03.035Z,99242.91
2019-03-24T12:35:32.538Z,99241.63
2019-03-24T12:38:08.056Z,99235.41
2019-03-24T12:40:43.323Z,99226.13
2019-03-24T12:43:19.531Z,99228.91
2019-03-24T12:46:03.357Z,99226.36
2019-03-24T12:48:32.830Z,99218.03
2019-03-24T12:51:09.968Z,99214.49
2019-03-24T12:53:39.471Z,99214.33
2019-03-24T12:56:28.307Z,99222.59
2019-03-24T12:58:57.782Z,99219.06
2019-03-24T13:01:27.256Z,99224.24
2019-03-24T13:03:56.785Z,99226.92
2019-03-24T13:06:26.351Z,99233.38
2019-03-24T13:08:55.852Z,99223.70
2019-03-24T13:11:25.404Z,99226.84
2019-03-24T13:13:54.877Z,99235.53
2019-03-24T13:16:24.350Z,99218.06
2019-03-24T13:18:54.014Z,99222.84
2019-03-24T13:21:23.489Z,99219.48
2019-03-24T13:23:52.973Z,99217.83
2019-03-24T13:26:22.489Z,99209.13
2019-03-24T13:28:51.988Z,99208.53
2019-03-24T13:31:21.479Z,99205.11
2019-03-24T13:33:50.958Z,99212.45
2019-03-24T13:36:20.528Z,99205.03
2019-03-24T13:38:50.065Z,99207.34
2019-03-24T13:41:19.586Z,99205.80
2019-03-24T13:43:49.202Z,99197.81
2019-03-24T13:46:18.702Z,99201.25
2019-03-24T13:48:48.238Z,99205.77
2019-03-24T13:51:17.727Z,99206.47
2019-03-24T13:53:47.259Z,99207.36
2019-03-24T13:56:17.010Z,99210.24
2019-03-24T13:58:46.502Z,99209.60
2019-03-24T14:01:16.519Z,99200.44
2019-03-24T14:03:46.035Z,99199.49
2019-03-24T14:06:15.490Z,99197.85
2019-03-24T14:08:45.035Z,99195.20
2019-03-24T14:11:14.568Z,99195.18
2019-03-24T14:13:44.064Z,99184.89
2019-03-24T14:16:13.633Z,99188.55
2019-03-24T14:18:43.162Z,99189.15
2019-03-24T14:21:12.666Z,99191.05
2019-03-24T14:23:42.153Z,99188.50
2019-03-24T14:26:12.102Z,99188.96
2019-03-24T14:28:41.574Z,99187.13
2019-03-24T14:31:11.587Z,99188.63
2019-03-24T14:33:41.081Z,99188.45
2019-03-24T14:36:29.877Z,99194.21
2019-03-24T14:38:59.456Z,99193.03
2019-03-24T14:41:29.065Z,99186.78
2019-03-24T14:43:58.624Z,99191.27
2019-03-24T14:46:28.176Z,99193.78
2019-03-24T14:48:57.616Z,99203.55
2019-03-24T14:51:46.417Z,99199.94
2019-03-24T14:54:15.921Z,99199.45
2019-03-24T14:56:45.588Z,99202.45
2019-03-24T14:59:15.090Z,99193.27
2019-03-24T15:01:44.598Z,99192.09
2019-03-24T15:04:14.069Z,99194.69
2019-03-24T15:06:43.574Z,99191.70
2019-03-24T15:09:13.064Z,99193.02
2019-03-24T15:11:42.579Z,99194.17
2019-03-24T15:14:12.084Z,99198.40
2019-03-24T15:16:41.617Z,99192.95
2019-03-24T15:19:11.117Z,99192.34
2019-03-24T15:21:40.724Z,99191.60
2019-03-24T15:24:10.183Z,99191.20
2019-03-24T15:26:39.731Z,99191.94
2019-03-24T15:29:09.427Z,99199.52
2019-03-24T15:31:39.003Z,99197.42
2019-03-24T15:34:08.488Z,99202.64
2019-03-24T15:36:37.966Z,99205.47
2019-03-24T15:39:09.546Z,99201.09
2019-03-24T15:41:39.204Z,99213.39
2019-03-24T15:44:28.049Z,99212.88
2019-03-24T15:46:57.506Z,99209.82
2019-03-24T15:49:26.983Z,99215.73
2019-03-24T15:51:56.719Z,99210.30
2019-03-24T15:54:26.226Z,99206.97
2019-03-24T15:56:55.728Z,99212.84
2019-03-24T15:59:25.219Z,99211.48
2019-03-24T16:01:54.722Z,99214.12
2019-03-24T16:04:24.224Z,99217.73
2019-03-24T16:06:53.831Z,99220.87
2019-03-24T16:09:23.305Z,99221.36
2019-03-24T16:11:52.817Z,99224.38
2019-03-24T16:14:22.362Z,99229.38
2019-03-24T16:16:51.832Z,99225.68
2019-03-24T16:19:40.668Z,99232.75
2019-03-24T16:22:10.172Z,99239.59
2019-03-24T16:24:39.632Z,99231.73
2019-03-24T16:27:09.186Z,99235.09
2019-03-24T16:29:38.745Z,99245.38
2019-03-24T16:32:08.485Z,99249.39
2019-03-24T16:34:38.048Z,99254.49
2019-03-24T16:37:07.533Z,99256.45
2019-03-24T16:39:38.502Z,99253.27
2019-03-24T16:42:08.003Z,99261.50
2019-03-24T16:44:37.517Z,99256.62
2019-03-24T16:47:26.766Z,99265.73
2019-03-24T16:49:56.276Z,99266.46
2019-03-24T16:52:25.750Z,99266.35
2019-03-24T16:54:55.257Z,99266.03
2019-03-24T16:57:25.424Z,99268.28
2019-03-24T16:59:54.925Z,99266.73
2019-03-24T17:02:24.495Z,99271.38
2019-03-24T17:05:13.436Z,99272.66
2019-03-24T17:07:42.961Z,99274.00
2019-03-24T17:10:12.874Z,99270.77
2019-03-24T17:12:42.378Z,99269.84
2019-03-24T17:15:12.525Z,99268.27
2019-03-24T17:17:42.030Z,99273.22
2019-03-24T17:20:30.867Z,99273.70
2019-03-24T17:23:00.368Z,99276.42
2019-03-24T17:25:29.873Z,99280.90
2019-03-24T17:27:59.383Z,99281.20
2019-03-24T17:30:29.019Z,99274.16
2019-03-24T17:32:58.968Z,99272.98
2019-03-24T17:35:28.687Z,99282.51
2019-03-24T17:37:58.176Z,99274.88
2019-03-24T17:40:27.668Z,99281.30
2019-03-24T17:42:57.256Z,99289.12
2019-03-24T17:45:26.821Z,99290.11
2019-03-24T17:47:56.359Z,99282.00
2019-03-24T17:50:25.864Z,99284.34
2019-03-24T17:52:55.340Z,99285.58
2019-03-24T17:55:27.936Z,99282.39
2019-03-24T17:57:56.279Z,99283.63
2019-03-24T18:00:30.315Z,99281.82
2019-03-24T18:02:59.788Z,99285.61
2019-03-24T18:05:29.462Z,99283.31
2019-03-24T18:08:01.745Z,99281.28
2019-03-24T18:10:31.329Z,99277.91
2019-03-24T18:13:00.816Z,99279.97
2019-03-24T18:15:30.306Z,99281.05
2019-03-24T18:17:59.807Z,99281.34
2019-03-24T18:20:33.630Z,99276.47
2019-03-24T18:23:03.444Z,99282.03
2019-03-24T18:25:33.007Z,99292.59
2019-03-24T18:28:02.898Z,99290.41
2019-03-24T18:30:32.569Z,99292.52
2019-03-24T18:33:02.074Z,99288.97
2019-03-24T18:35:31.668Z,99284.52
2019-03-24T18:38:01.228Z,99283.12
2019-03-24T18:40:30.696Z,99287.34
2019-03-24T18:43:00.253Z,99285.52
2019-03-24T18:45:29.733Z,99285.92
2019-03-24T18:47:59.230Z,99290.81
2019-03-24T18:50:28.789Z,99295.56
2019-03-24T18:52:58.247Z,99295.78
2019-03-24T18:55:27.726Z,99293.00
2019-03-24T18:57:57.352Z,99287.05
2019-03-24T19:00:26.836Z,99291.00
2019-03-24T19:02:56.342Z,99291.14
2019-03-24T19:05:25.873Z,99296.09
2019-03-24T19:07:55.348Z,99292.98
2019-03-24T19:10:24.822Z,99298.49
2019-03-24T19:12:54.322Z,99293.50
2019-03-24T19:15:23.992Z,99288.25
2019-03-24T19:17:53.463Z,99285.95
2019-03-24T19:20:23.066Z,99284.77
2019-03-24T19:22:52.573Z,99283.03
2019-03-24T19:25:22.076Z,99284.65
2019-03-24T19:27:51.594Z,99294.25
2019-03-24T19:30:25.629Z,99297.10
2019-03-24T19:32:55.252Z,99300.42
2019-03-24T19:35:24.844Z,99297.84
2019-03-24T19:37:56.948Z,99302.09
2019-03-24T19:40:30.199Z,99300.09
2019-03-24T19:43:00.059Z,99291.59
2019-03-24T19:45:29.726Z,99295.48
2019-03-24T19:47:59.233Z,99303.98
2019-03-24T19:50:28.713Z,99302.44
2019-03-24T19:52:58.179Z,99307.41
2019-03-24T19:55:27.853Z,99306.53
2019-03-24T19:57:57.353Z,99309.18
2019-03-24T20:00:46.167Z,99308.59
2019-03-24T20:03:15.661Z,99316.17
2019-03-24T20:05:45.167Z,99316.20
2019-03-24T20:08:14.626Z,99320.49
2019-03-24T20:10:44.093Z,99313.59
2019-03-24T20:13:13.572Z,99317.42
2019-03-24T20:15:43.514Z,99318.02
2019-03-24T20:18:13.015Z,99316.20
2019-03-24T20:20:42.502Z,99317.75
2019-03-24T20:23:11.974Z,99322.95
2019-03-24T20:25:41.466Z,99324.94
2019-03-24T20:28:10.972Z,99325.19
2019-03-24T20:30:40.538Z,99321.88
2019-03-24T20:33:10.099Z,99318.14
2019-03-24T20:35:58.896Z,99227.86
2019-03-24T20:38:28.732Z,99310.61
2019-03-24T20:40:58.238Z,99308.92
2019-03-24T20:43:27.744Z,99312.02
2019-03-24T20:45:57.266Z,99311.25
2019-03-24T20:48:26.853Z,99311.11
2019-03-24T20:50:56.385Z,99309.48
2019-03-24T20:53:26.810Z,99305.89
2019-03-24T20:55:56.292Z,99307.34
2019-03-24T20:58:25.835Z,99302.47
2019-03-24T21:00:55.328Z,99298.56
2019-03-24T21:03:24.781Z,99305.17
2019-03-24T21:05:54.291Z,99307.19
2019-03-24T21:08:23.743Z,99308.59
2019-03-24T21:10:53.243Z,99311.00
2019-03-24T21:13:22.726Z,99313.91
2019-03-24T21:15:52.207Z,99316.13
2019-03-24T21:18:21.859Z,99317.92
2019-03-24T21:20:51.482Z,99318.92
2019-03-24T21:23:29.123Z,99309.47
2019-03-24T21:25:53.659Z,99310.62
2019-03-24T21:28:23.176Z,99305.08
2019-03-24T21:30:52.643Z,99303.31
2019-03-24T21:33:22.120Z,99307.25
2019-03-24T21:35:51.774Z,99312.91
2019-03-24T21:38:21.289Z,99301.20
2019-03-24T21:40:50.934Z,99309.02
2019-03-24T21:43:20.446Z,99309.59
2019-03-24T21:45:49.926Z,99308.02
2019-03-24T21:48:19.563Z,99310.26
2019-03-24T21:50:49.072Z,99307.64
2019-03-24T21:53:18.562Z,99312.67
2019-03-24T21:55:48.294Z,99306.62
2019-03-24T21:58:17.831Z,99312.20
2019-03-24T22:00:47.401Z,99312.30
2019-03-24T22:03:16.851Z,99315.97
2019-03-24T22:05:46.363Z,99312.34
2019-03-24T22:08:35.164Z,99312.53
2019-03-24T22:11:04.853Z,99309.58
2019-03-24T22:13:34.333Z,99311.61
2019-03-24T22:16:03.856Z,99311.56
2019-03-24T22:18:33.356Z,99312.77
2019-03-24T22:21:02.828Z,99308.80
2019-03-24T22:23:32.284Z,99303.23
2019-03-24T22:26:01.795Z,99305.72
2019-03-24T22:28:31.252Z,99307.86
2019-03-24T22:31:00.768Z,99308.20
2019-03-24T22:33:30.286Z,99308.91
2019-03-24T22:35:59.776Z,99310.16
2019-03-24T22:38:29.246Z,99300.86
2019-03-24T22:40:59.629Z,99303.16
2019-03-24T22:43:29.117Z,99297.36
2019-03-24T22:45:58.617Z,99299.02
2019-03-24T22:48:47.436Z,99301.78
2019-03-24T22:51:16.900Z,99302.89
2019-03-24T22:53:46.367Z,99300.86
2019-03-24T22:56:15.969Z,99304.57
2019-03-24T22:58:45.486Z,99303.28
2019-03-24T23:01:17.054Z,99306.45
2019-03-24T23:03:46.553Z,99301.47
2019-03-24T23:06:16.045Z,99299.69
2019-03-24T23:08:45.500Z,99300.40
2019-03-24T23:11:15.060Z,99294.47
2019-03-24T23:13:44.558Z,99289.37
2019-03-24T23:16:14.110Z,99287.44
2019-03-24T23:18:43.671Z,99288.28
2019-03-24T23:21:13.152Z,99289.29
2019-03-24T23:23:42.608Z,99281.95
2019-03-24T23:26:12.091Z,99277.90
2019-03-24T23:28:41.646Z,99278.86
2019-03-24T23:31:11.213Z,99279.23
2019-03-24T23:33:40.681Z,99275.97
2019-03-24T23:36:10.238Z,99269.01
2019-03-24T23:38:39.692Z,99275.90
2019-03-24T23:41:09.624Z,99272.31
2019-03-24T23:43:39.076Z,99271.59
2019-03-24T23:46:08.569Z,99270.89
2019-03-24T23:48:38.044Z,99271.44
2019-03-24T23:51:26.843Z,99263.50
2019-03-24T23:53:56.328Z,99266.48
2019-03-24T23:56:25.786Z,99268.77
2019-03-24T23:58:55.283Z,99275.85
